createdAt,value
2023-02-01T00:02:04.049Z,5.98
2023-02-01T00:04:31.741Z,6.02
2023-02-01T00:06:59.383Z,6.04
2023-02-01T00:09:27.329Z,6.07
2023-02-01T00:11:56.195Z,6.11
2023-02-01T00:14:24.501Z,6.16
2023-02-01T00:16:52.297Z,6.18
2023-02-01T00:19:19.955Z,6.23
2023-02-01T00:21:47.830Z,6.25
2023-02-01T00:24:15.480Z,6.27
2023-02-01T00:26:43.526Z,6.30
2023-02-01T00:29:11.180Z,6.33
2023-02-01T00:31:38.879Z,6.35
2023-02-01T00:34:08.173Z,6.39
2023-02-01T00:36:35.871Z,6.41
2023-02-01T00:39:03.561Z,6.42
2023-02-01T00:41:31.265Z,6.43
2023-02-01T00:43:58.920Z,6.44
2023-02-01T00:46:26.855Z,6.45
2023-02-01T00:48:54.561Z,6.44
2023-02-01T00:51:22.485Z,6.44
2023-02-01T00:53:50.157Z,6.41
2023-02-01T00:56:18.112Z,6.38
2023-02-01T00:58:46.127Z,6.36
2023-02-01T01:01:13.881Z,6.34
2023-02-01T01:03:41.484Z,6.34
2023-02-01T01:06:09.081Z,6.32
2023-02-01T01:08:36.722Z,6.34
2023-02-01T01:11:04.530Z,6.34
2023-02-01T01:13:32.149Z,6.32
2023-02-01T01:16:02.956Z,6.32
2023-02-01T01:18:30.986Z,6.31
2023-02-01T01:20:58.609Z,6.32
2023-02-01T01:23:26.680Z,6.32
2023-02-01T01:25:54.254Z,6.32
2023-02-01T01:28:21.862Z,6.31
2023-02-01T01:30:49.521Z,6.30
2023-02-01T01:33:17.112Z,6.29
2023-02-01T01:35:44.744Z,6.29
2023-02-01T01:38:12.432Z,6.28
2023-02-01T01:40:40.777Z,6.27
2023-02-01T01:43:08.359Z,6.26
2023-02-01T01:45:35.945Z,6.26
2023-02-01T01:48:03.893Z,6.24
2023-02-01T01:50:31.501Z,6.23
2023-02-01T01:52:59.217Z,6.23
2023-02-01T01:55:26.857Z,6.24
2023-02-01T01:57:54.439Z,6.24
2023-02-01T02:00:22.716Z,6.22
2023-02-01T02:02:50.815Z,6.21
2023-02-01T02:05:18.570Z,6.20
2023-02-01T02:07:46.521Z,6.21
2023-02-01T02:10:14.073Z,6.20
2023-02-01T02:12:41.807Z,6.19
2023-02-01T02:15:09.403Z,6.19
2023-02-01T02:17:37.313Z,6.21
2023-02-01T02:20:06.365Z,6.20
2023-02-01T02:22:34.753Z,6.20
2023-02-01T02:25:02.479Z,6.17
2023-02-01T02:27:30.041Z,6.18
2023-02-01T02:29:57.674Z,6.21
2023-02-01T02:32:25.630Z,6.19
2023-02-01T02:34:53.145Z,6.19
2023-02-01T02:37:20.753Z,6.19
2023-02-01T02:39:48.291Z,6.20
2023-02-01T02:42:33.644Z,6.19
2023-02-01T02:45:18.891Z,6.19
2023-02-01T02:47:46.642Z,6.20
2023-02-01T02:50:31.760Z,6.19
2023-02-01T02:53:17.517Z,6.19
2023-02-01T02:55:45.086Z,6.19
2023-02-01T02:58:30.167Z,6.20
2023-02-01T03:01:15.041Z,6.20
2023-02-01T03:04:00.524Z,6.17
2023-02-01T03:06:29.915Z,6.16
2023-02-01T03:08:57.977Z,6.13
2023-02-01T03:11:45.535Z,6.13
2023-02-01T03:14:12.074Z,6.13
2023-02-01T03:16:40.138Z,6.14
2023-02-01T03:19:07.771Z,6.13
2023-02-01T03:21:35.308Z,6.10
2023-02-01T03:24:03.229Z,6.07
2023-02-01T03:26:31.373Z,6.07
2023-02-01T03:28:58.921Z,6.04
2023-02-01T03:31:26.561Z,5.98
2023-02-01T03:33:54.147Z,5.93
2023-02-01T03:36:24.140Z,5.91
2023-02-01T03:38:51.687Z,5.92
2023-02-01T03:41:19.298Z,5.94
2023-02-01T03:43:46.865Z,5.98
2023-02-01T03:46:14.392Z,5.99
2023-02-01T03:48:42.325Z,6.01
2023-02-01T03:51:09.893Z,6.02
2023-02-01T03:53:37.589Z,6.02
2023-02-01T03:56:05.157Z,6.03
2023-02-01T03:58:32.696Z,6.02
2023-02-01T04:01:00.665Z,6.00
2023-02-01T04:03:28.279Z,6.01
2023-02-01T04:05:56.044Z,6.02
2023-02-01T04:08:23.595Z,6.02
2023-02-01T04:10:51.603Z,6.02
2023-02-01T04:13:19.174Z,6.00
2023-02-01T04:15:47.726Z,5.97
2023-02-01T04:18:15.822Z,5.95
2023-02-01T04:20:43.370Z,5.93
2023-02-01T04:23:11.344Z,5.93
2023-02-01T04:25:39.001Z,5.95
2023-02-01T04:28:08.257Z,5.98
2023-02-01T04:30:35.898Z,6.01
2023-02-01T04:33:07.452Z,6.04
2023-02-01T04:35:35.007Z,6.06
2023-02-01T04:38:02.554Z,6.08
2023-02-01T04:40:30.552Z,6.11
2023-02-01T04:42:58.471Z,6.14
2023-02-01T04:45:26.015Z,6.14
2023-02-01T04:47:53.616Z,6.14
2023-02-01T04:50:21.898Z,6.15
2023-02-01T04:52:50.025Z,6.15
2023-02-01T04:55:18.129Z,6.16
2023-02-01T04:57:45.798Z,6.16
2023-02-01T05:00:14.291Z,6.16
2023-02-01T05:02:41.905Z,6.15
2023-02-01T05:05:09.875Z,6.16
2023-02-01T05:07:37.432Z,6.16
2023-02-01T05:10:05.082Z,6.16
2023-02-01T05:12:50.048Z,6.16
2023-02-01T05:15:18.456Z,6.18
2023-02-01T05:17:46.095Z,6.18
2023-02-01T05:20:13.691Z,6.16
2023-02-01T05:22:41.380Z,6.16
2023-02-01T05:25:08.977Z,6.14
2023-02-01T05:27:37.030Z,6.16
2023-02-01T05:30:04.903Z,6.16
2023-02-01T05:32:32.611Z,6.16
2023-02-01T05:35:00.222Z,6.17
2023-02-01T05:37:28.186Z,6.16
2023-02-01T05:39:56.151Z,6.15
2023-02-01T05:42:23.719Z,6.15
2023-02-01T05:44:51.406Z,6.16
2023-02-01T05:47:19.042Z,6.14
2023-02-01T05:49:46.678Z,6.12
2023-02-01T05:52:14.727Z,6.12
2023-02-01T05:54:42.484Z,6.11
2023-02-01T05:57:10.163Z,6.12
2023-02-01T05:59:42.554Z,6.13
2023-02-01T06:02:11.182Z,6.13
2023-02-01T06:04:38.793Z,6.11
2023-02-01T06:07:06.941Z,6.07
2023-02-01T06:09:34.560Z,6.03
2023-02-01T06:12:02.877Z,6.02
2023-02-01T06:14:30.488Z,6.01
2023-02-01T06:16:58.063Z,6.01
2023-02-01T06:19:25.960Z,6.02
2023-02-01T06:21:53.739Z,6.03
2023-02-01T06:24:21.747Z,6.05
2023-02-01T06:26:49.429Z,6.06
2023-02-01T06:29:17.237Z,6.07
2023-02-01T06:31:45.110Z,6.07
2023-02-01T06:34:12.751Z,6.06
2023-02-01T06:36:41.567Z,6.08
2023-02-01T06:39:09.181Z,6.09
2023-02-01T06:41:37.147Z,6.10
2023-02-01T06:44:04.864Z,6.09
2023-02-01T06:46:32.482Z,6.10
2023-02-01T06:49:00.488Z,6.11
2023-02-01T06:51:28.285Z,6.10
2023-02-01T06:53:55.884Z,6.10
2023-02-01T06:56:23.646Z,6.09
2023-02-01T06:58:51.509Z,6.11
2023-02-01T07:01:19.475Z,6.10
2023-02-01T07:03:47.529Z,6.11
2023-02-01T07:06:15.317Z,6.12
2023-02-01T07:08:43.161Z,6.13
2023-02-01T07:11:10.863Z,6.14
2023-02-01T07:13:38.900Z,6.15
2023-02-01T07:16:06.656Z,6.18
2023-02-01T07:18:34.350Z,6.18
2023-02-01T07:21:02.154Z,6.18
2023-02-01T07:23:29.838Z,6.19
2023-02-01T07:25:57.935Z,6.19
2023-02-01T07:28:25.748Z,6.18
2023-02-01T07:30:53.600Z,6.20
2023-02-01T07:33:21.635Z,6.19
2023-02-01T07:35:49.321Z,6.20
2023-02-01T07:38:17.394Z,6.20
2023-02-01T07:40:45.151Z,6.20
2023-02-01T07:43:12.944Z,6.21
2023-02-01T07:45:40.862Z,6.21
2023-02-01T07:48:08.957Z,6.21
2023-02-01T07:50:36.777Z,6.22
2023-02-01T07:53:04.537Z,6.24
2023-02-01T07:55:32.293Z,6.25
2023-02-01T07:58:00.710Z,6.26
2023-02-01T08:00:46.340Z,6.27
2023-02-01T08:03:16.512Z,6.29
2023-02-01T08:05:45.128Z,6.30
2023-02-01T08:08:14.625Z,6.30
2023-02-01T08:10:42.406Z,6.31
2023-02-01T08:13:11.182Z,6.32
2023-02-01T08:15:39.042Z,6.32
2023-02-01T08:18:06.814Z,6.33
2023-02-01T08:20:37.166Z,6.33
2023-02-01T08:23:05.183Z,6.34
2023-02-01T08:25:33.565Z,6.34
2023-02-01T08:28:01.275Z,6.37
2023-02-01T08:30:30.527Z,6.37
2023-02-01T08:32:58.461Z,6.38
2023-02-01T08:35:41.358Z,6.38
2023-02-01T08:38:10.514Z,6.36
2023-02-01T08:40:38.253Z,6.37
2023-02-01T08:43:06.038Z,6.38
2023-02-01T08:45:34.004Z,6.38
2023-02-01T08:48:01.650Z,6.38
2023-02-01T08:50:29.965Z,6.40
2023-02-01T08:52:57.779Z,6.42
2023-02-01T08:55:25.585Z,6.43
2023-02-01T08:57:53.224Z,6.45
2023-02-01T09:00:21.422Z,6.48
2023-02-01T09:02:49.547Z,6.49
2023-02-01T09:05:20.192Z,6.54
2023-02-01T09:07:48.225Z,6.59
2023-02-01T09:10:18.922Z,6.62
2023-02-01T09:12:49.115Z,6.65
2023-02-01T09:15:16.887Z,6.66
2023-02-01T09:17:44.685Z,6.66
2023-02-01T09:20:12.572Z,6.64
2023-02-01T09:22:40.309Z,6.63
2023-02-01T09:25:08.115Z,6.66
2023-02-01T09:27:36.527Z,6.69
2023-02-01T09:30:04.330Z,6.70
2023-02-01T09:32:32.657Z,6.71
2023-02-01T09:35:00.941Z,6.74
2023-02-01T09:37:28.710Z,6.75
2023-02-01T09:39:56.802Z,6.77
2023-02-01T09:42:24.586Z,6.79
2023-02-01T09:44:52.917Z,6.81
2023-02-01T09:47:20.624Z,6.83
2023-02-01T09:49:48.747Z,6.86
2023-02-01T09:52:16.807Z,6.90
2023-02-01T09:54:44.547Z,6.94
2023-02-01T09:57:14.195Z,6.95
2023-02-01T09:59:41.935Z,6.97
2023-02-01T10:02:09.809Z,6.98
2023-02-01T10:04:37.569Z,6.98
2023-02-01T10:07:05.342Z,6.99
2023-02-01T10:09:33.875Z,6.98
2023-02-01T10:12:01.809Z,6.98
2023-02-01T10:14:29.487Z,6.99
2023-02-01T10:16:57.733Z,7.02
2023-02-01T10:19:25.992Z,7.04
2023-02-01T10:21:53.979Z,7.03
2023-02-01T10:24:21.822Z,7.04
2023-02-01T10:26:49.980Z,7.03
2023-02-01T10:29:18.268Z,7.03
2023-02-01T10:31:46.107Z,7.01
2023-02-01T10:34:14.671Z,6.98
2023-02-01T10:36:42.685Z,6.99
2023-02-01T10:39:11.061Z,6.98
2023-02-01T10:41:40.894Z,6.97
2023-02-01T10:44:08.791Z,6.97
2023-02-01T10:46:36.876Z,6.98
2023-02-01T10:49:05.051Z,7.04
2023-02-01T10:51:32.819Z,7.09
2023-02-01T10:54:01.021Z,7.10
2023-02-01T10:56:29.030Z,7.08
2023-02-01T10:58:56.751Z,7.08
2023-02-01T11:01:24.646Z,7.07
2023-02-01T11:03:52.954Z,7.05
2023-02-01T11:06:21.183Z,7.02
2023-02-01T11:08:48.971Z,7.00
2023-02-01T11:11:19.277Z,6.99
2023-02-01T11:13:47.299Z,6.95
2023-02-01T11:16:15.381Z,6.94
2023-02-01T11:18:43.760Z,6.93
2023-02-01T11:21:11.893Z,6.94
2023-02-01T11:23:40.071Z,6.93
2023-02-01T11:26:08.351Z,6.94
2023-02-01T11:28:36.184Z,6.95
2023-02-01T11:31:04.498Z,6.98
2023-02-01T11:33:32.462Z,6.99
2023-02-01T11:36:00.834Z,7.00
2023-02-01T11:38:28.663Z,6.99
2023-02-01T11:40:56.761Z,6.99
2023-02-01T11:43:25.464Z,7.01
2023-02-01T11:45:53.353Z,7.04
2023-02-01T11:48:26.854Z,7.06
2023-02-01T11:50:55.268Z,7.10
2023-02-01T11:53:23.295Z,7.12
2023-02-01T11:55:51.577Z,7.14
2023-02-01T11:58:19.418Z,7.18
2023-02-01T12:00:47.610Z,7.21
2023-02-01T12:03:15.551Z,7.23
2023-02-01T12:05:43.847Z,7.26
2023-02-01T12:08:12.455Z,7.30
2023-02-01T12:10:40.989Z,7.29
2023-02-01T12:13:08.890Z,7.26
2023-02-01T12:15:36.780Z,7.22
2023-02-01T12:18:04.784Z,7.09
2023-02-01T12:20:33.984Z,6.85
2023-02-01T12:23:01.927Z,6.58
2023-02-01T12:25:30.208Z,6.40
2023-02-01T12:27:58.065Z,6.27
2023-02-01T12:30:26.401Z,6.18
2023-02-01T12:32:54.861Z,6.08
2023-02-01T12:35:22.618Z,6.01
2023-02-01T12:37:56.160Z,5.96
2023-02-01T12:40:24.392Z,5.92
2023-02-01T12:42:52.398Z,5.90
2023-02-01T12:45:20.895Z,5.93
2023-02-01T12:47:48.732Z,6.02
2023-02-01T12:50:17.631Z,6.14
2023-02-01T12:52:45.634Z,6.25
2023-02-01T12:55:13.487Z,6.34
2023-02-01T12:57:41.456Z,6.41
2023-02-01T13:00:11.085Z,6.52
2023-02-01T13:02:40.170Z,6.57
2023-02-01T13:05:08.186Z,6.63
2023-02-01T13:07:36.195Z,6.65
2023-02-01T13:10:04.959Z,6.67
2023-02-01T13:12:32.848Z,6.68
2023-02-01T13:15:01.731Z,6.66
2023-02-01T13:17:29.447Z,6.60
2023-02-01T13:19:57.296Z,6.56
2023-02-01T13:22:27.315Z,6.54
2023-02-01T13:24:55.187Z,6.45
2023-02-01T13:27:23.408Z,6.35
2023-02-01T13:29:51.493Z,6.25
2023-02-01T13:32:19.676Z,6.20
2023-02-01T13:34:47.985Z,6.14
2023-02-01T13:37:16.389Z,6.11
2023-02-01T13:39:44.711Z,6.08
2023-02-01T13:42:12.607Z,6.06
2023-02-01T13:44:40.762Z,6.05
2023-02-01T13:47:09.173Z,6.05
2023-02-01T13:49:37.157Z,6.04
2023-02-01T13:52:05.160Z,6.05
2023-02-01T13:54:33.054Z,6.06
2023-02-01T13:57:01.574Z,6.07
2023-02-01T13:59:30.399Z,6.11
2023-02-01T14:01:58.313Z,6.16
2023-02-01T14:04:26.331Z,6.22
2023-02-01T14:06:54.439Z,6.32
2023-02-01T14:09:22.381Z,6.39
2023-02-01T14:11:50.601Z,6.45
2023-02-01T14:14:18.519Z,6.50
2023-02-01T14:16:46.726Z,6.54
2023-02-01T14:19:14.629Z,6.60
2023-02-01T14:21:42.647Z,6.63
2023-02-01T14:24:11.130Z,6.66
2023-02-01T14:26:39.098Z,6.65
2023-02-01T14:29:10.459Z,6.66
2023-02-01T14:31:40.760Z,6.59
2023-02-01T14:34:09.031Z,6.51
2023-02-01T14:36:39.817Z,6.46
2023-02-01T14:39:10.189Z,6.45
2023-02-01T14:41:38.473Z,6.46
2023-02-01T14:44:06.666Z,6.47
2023-02-01T14:46:38.227Z,6.45
2023-02-01T14:49:05.974Z,6.41
2023-02-01T14:51:33.945Z,6.37
2023-02-01T14:54:01.976Z,6.31
2023-02-01T14:56:29.827Z,6.29
2023-02-01T14:58:58.965Z,6.27
2023-02-01T15:01:26.951Z,6.27
2023-02-01T15:03:56.955Z,6.27
2023-02-01T15:06:24.857Z,6.29
2023-02-01T15:08:52.857Z,6.29
2023-02-01T15:11:21.069Z,6.30
2023-02-01T15:13:48.980Z,6.34
2023-02-01T15:16:16.929Z,6.41
2023-02-01T15:18:44.777Z,6.48
2023-02-01T15:21:29.407Z,6.55
2023-02-01T15:23:59.606Z,6.62
2023-02-01T15:26:28.051Z,6.68
2023-02-01T15:28:55.997Z,6.76
2023-02-01T15:31:24.045Z,6.82
2023-02-01T15:33:52.254Z,6.89
2023-02-01T15:36:22.173Z,6.94
2023-02-01T15:38:50.817Z,6.92
2023-02-01T15:41:18.817Z,6.77
2023-02-01T15:43:46.669Z,6.63
2023-02-01T15:46:14.937Z,6.54
2023-02-01T15:48:42.908Z,6.46
2023-02-01T15:51:10.985Z,6.42
2023-02-01T15:53:39.044Z,6.39
2023-02-01T15:56:06.942Z,6.38
2023-02-01T15:58:35.741Z,6.38
2023-02-01T16:01:06.469Z,6.40
2023-02-01T16:03:34.831Z,6.42
2023-02-01T16:06:02.728Z,6.48
2023-02-01T16:08:31.184Z,6.55
2023-02-01T16:10:58.982Z,6.60
2023-02-01T16:13:27.085Z,6.67
2023-02-01T16:15:55.528Z,6.73
2023-02-01T16:18:23.508Z,6.80
2023-02-01T16:20:51.402Z,6.77
2023-02-01T16:23:21.412Z,6.67
2023-02-01T16:25:49.857Z,6.59
2023-02-01T16:28:17.977Z,6.52
2023-02-01T16:30:46.573Z,6.48
2023-02-01T16:33:16.207Z,6.45
2023-02-01T16:35:44.264Z,6.47
2023-02-01T16:38:14.451Z,6.47
2023-02-01T16:40:42.468Z,6.48
2023-02-01T16:43:10.253Z,6.49
2023-02-01T16:45:38.442Z,6.53
2023-02-01T16:48:06.464Z,6.58
2023-02-01T16:50:34.659Z,6.65
2023-02-01T16:53:03.208Z,6.68
2023-02-01T16:55:31.093Z,6.69
2023-02-01T16:57:58.968Z,6.63
2023-02-01T17:00:28.928Z,6.58
2023-02-01T17:02:57.003Z,6.52
2023-02-01T17:05:25.492Z,6.46
2023-02-01T17:07:53.836Z,6.41
2023-02-01T17:10:31.464Z,6.36
2023-02-01T17:13:01.448Z,6.30
2023-02-01T17:15:29.900Z,6.26
2023-02-01T17:17:59.101Z,6.22
2023-02-01T17:20:27.159Z,6.20
2023-02-01T17:22:55.055Z,6.19
2023-02-01T17:25:23.383Z,6.18
2023-02-01T17:27:52.113Z,6.18
2023-02-01T17:30:19.981Z,6.06
2023-02-01T17:32:47.818Z,5.95
2023-02-01T17:35:17.024Z,5.85
2023-02-01T17:37:45.216Z,5.74
2023-02-01T17:40:13.450Z,5.66
2023-02-01T17:42:41.570Z,5.61
2023-02-01T17:45:11.092Z,5.54
2023-02-01T17:47:39.117Z,5.49
2023-02-01T17:50:07.436Z,5.44
2023-02-01T17:52:36.537Z,5.38
2023-02-01T17:55:05.007Z,5.32
2023-02-01T17:57:33.464Z,5.28
2023-02-01T18:00:01.404Z,5.25
2023-02-01T18:02:29.899Z,5.22
2023-02-01T18:04:59.162Z,5.20
2023-02-01T18:07:27.037Z,5.19
2023-02-01T18:09:55.635Z,5.21
2023-02-01T18:12:23.506Z,5.25
2023-02-01T18:14:51.800Z,5.29
2023-02-01T18:17:20.380Z,5.32
2023-02-01T18:19:48.911Z,5.38
2023-02-01T18:22:16.889Z,5.41
2023-02-01T18:24:44.684Z,5.45
2023-02-01T18:27:13.065Z,5.50
2023-02-01T18:29:41.513Z,5.54
2023-02-01T18:32:09.573Z,5.58
2023-02-01T18:34:37.597Z,5.62
2023-02-01T18:37:05.574Z,5.64
2023-02-01T18:39:33.701Z,5.66
2023-02-01T18:42:03.142Z,5.63
2023-02-01T18:44:31.064Z,5.57
2023-02-01T18:47:00.831Z,5.48
2023-02-01T18:49:28.835Z,5.39
2023-02-01T18:51:56.750Z,5.31
2023-02-01T18:54:25.422Z,5.26
2023-02-01T18:56:53.579Z,5.23
2023-02-01T18:59:21.445Z,5.21
2023-02-01T19:01:49.352Z,5.20
2023-02-01T19:04:25.974Z,5.19
2023-02-01T19:06:55.237Z,5.18
2023-02-01T19:09:23.179Z,5.15
2023-02-01T19:11:50.962Z,5.12
2023-02-01T19:14:18.777Z,5.08
2023-02-01T19:16:46.699Z,5.07
2023-02-01T19:19:14.497Z,5.05
2023-02-01T19:21:42.439Z,5.06
2023-02-01T19:24:10.510Z,5.07
2023-02-01T19:26:38.816Z,5.05
2023-02-01T19:29:06.647Z,5.01
2023-02-01T19:31:34.737Z,4.97
2023-02-01T19:34:02.695Z,4.95
2023-02-01T19:36:30.586Z,4.93
2023-02-01T19:38:58.709Z,4.91
2023-02-01T19:41:26.532Z,4.89
2023-02-01T19:43:54.661Z,4.90
2023-02-01T19:46:23.041Z,4.89
2023-02-01T19:48:50.860Z,4.89
2023-02-01T19:51:19.683Z,4.92
2023-02-01T19:53:47.643Z,4.98
2023-02-01T19:56:15.701Z,5.03
2023-02-01T19:58:44.107Z,5.06
2023-02-01T20:01:12.044Z,5.11
2023-02-01T20:03:40.340Z,5.14
2023-02-01T20:06:08.752Z,5.18
2023-02-01T20:08:37.840Z,5.24
2023-02-01T20:11:05.725Z,5.28
2023-02-01T20:13:34.937Z,5.31
2023-02-01T20:16:03.401Z,5.33
2023-02-01T20:18:31.485Z,5.34
2023-02-01T20:20:59.541Z,5.33
2023-02-01T20:23:27.619Z,5.30
2023-02-01T20:25:57.491Z,5.30
2023-02-01T20:28:25.653Z,5.27
2023-02-01T20:30:54.254Z,5.25
2023-02-01T20:33:22.459Z,5.23
2023-02-01T20:35:50.357Z,5.21
2023-02-01T20:38:18.405Z,5.20
2023-02-01T20:40:46.517Z,5.21
2023-02-01T20:43:14.288Z,5.20
2023-02-01T20:45:42.650Z,5.23
2023-02-01T20:48:10.532Z,5.23
2023-02-01T20:50:38.531Z,5.27
2023-02-01T20:53:06.927Z,5.30
2023-02-01T20:55:34.755Z,5.33
2023-02-01T20:58:02.959Z,5.37
2023-02-01T21:00:31.605Z,5.42
2023-02-01T21:02:59.600Z,5.43
2023-02-01T21:05:40.245Z,5.43
2023-02-01T21:08:09.075Z,5.42
2023-02-01T21:10:37.063Z,5.40
2023-02-01T21:13:05.635Z,5.38
2023-02-01T21:15:35.136Z,5.38
2023-02-01T21:18:03.737Z,5.37
2023-02-01T21:20:31.947Z,5.36
2023-02-01T21:22:59.673Z,5.35
2023-02-01T21:25:27.646Z,5.34
2023-02-01T21:27:55.619Z,5.34
2023-02-01T21:30:24.151Z,5.34
2023-02-01T21:32:52.117Z,5.34
2023-02-01T21:35:20.463Z,5.35
2023-02-01T21:37:48.466Z,5.36
2023-02-01T21:40:16.327Z,5.36
2023-02-01T21:42:46.515Z,5.37
2023-02-01T21:45:14.777Z,5.37
2023-02-01T21:47:42.690Z,5.37
2023-02-01T21:50:10.704Z,5.38
2023-02-01T21:52:39.893Z,5.37
2023-02-01T21:55:08.129Z,5.34
2023-02-01T21:57:36.961Z,5.30
2023-02-01T22:00:05.735Z,5.24
2023-02-01T22:02:33.600Z,5.18
2023-02-01T22:05:01.668Z,5.14
2023-02-01T22:07:30.588Z,5.09
2023-02-01T22:10:00.000Z,5.06
2023-02-01T22:12:28.026Z,5.05
2023-02-01T22:14:55.861Z,5.05
2023-02-01T22:17:23.691Z,5.04
2023-02-01T22:19:52.489Z,5.04
2023-02-01T22:22:20.707Z,5.03
2023-02-01T22:24:48.454Z,5.01
2023-02-01T22:27:16.982Z,5.00
2023-02-01T22:29:44.866Z,4.98
2023-02-01T22:32:14.463Z,4.96
2023-02-01T22:34:42.903Z,4.93
2023-02-01T22:37:11.844Z,4.91
2023-02-01T22:39:40.087Z,4.91
2023-02-01T22:42:08.245Z,4.91
2023-02-01T22:44:36.311Z,4.91
2023-02-01T22:47:04.549Z,4.90
2023-02-01T22:49:32.497Z,4.90
2023-02-01T22:52:00.550Z,4.90
2023-02-01T22:54:28.257Z,4.89
2023-02-01T22:56:56.351Z,4.90
2023-02-01T22:59:24.253Z,4.92
2023-02-01T23:01:52.054Z,4.93
2023-02-01T23:04:21.621Z,4.95
2023-02-01T23:06:50.852Z,4.95
2023-02-01T23:09:19.007Z,4.97
2023-02-01T23:11:47.061Z,5.00
2023-02-01T23:14:14.821Z,5.02
2023-02-01T23:16:42.768Z,5.04
2023-02-01T23:19:10.515Z,5.06
2023-02-01T23:21:38.918Z,5.09
2023-02-01T23:24:08.403Z,5.10
2023-02-01T23:26:36.591Z,5.10
2023-02-01T23:29:04.345Z,5.12
2023-02-01T23:31:32.117Z,5.11
2023-02-01T23:34:00.563Z,5.13
2023-02-01T23:36:28.285Z,5.13
2023-02-01T23:38:55.950Z,5.16
2023-02-01T23:41:23.616Z,5.16
2023-02-01T23:44:01.286Z,5.18
2023-02-01T23:46:29.099Z,5.21
2023-02-01T23:48:56.784Z,5.22
2023-02-01T23:51:24.487Z,5.23
2023-02-01T23:53:52.165Z,5.26
2023-02-01T23:56:20.307Z,5.28
2023-02-01T23:58:48.162Z,5.29
